createdAt,value
2023-04-07T00:00:33.078Z,8.50
2023-04-07T00:03:02.290Z,8.40
2023-04-07T00:05:29.092Z,8.30
2023-04-07T00:07:57.032Z,8.30
2023-04-07T00:10:24.885Z,8.30
2023-04-07T00:12:51.671Z,8.20
2023-04-07T00:15:18.350Z,8.20
2023-04-07T00:17:44.998Z,8.20
2023-04-07T00:20:12.048Z,8.10
2023-04-07T00:22:38.634Z,8.10
2023-04-07T00:25:05.623Z,8.10
2023-04-07T00:27:32.215Z,8.20
2023-04-07T00:29:58.763Z,8.20
2023-04-07T00:32:25.452Z,8.30
2023-04-07T00:34:52.105Z,8.30
2023-04-07T00:37:19.342Z,8.30
2023-04-07T00:39:46.664Z,8.40
2023-04-07T00:42:13.471Z,8.20
2023-04-07T00:44:40.342Z,8.10
2023-04-07T00:47:07.032Z,8.10
2023-04-07T00:49:33.648Z,8.10
2023-04-07T00:52:01.021Z,8.20
2023-04-07T00:54:27.664Z,8.20
2023-04-07T00:56:54.268Z,8.00
2023-04-07T00:59:21.988Z,7.90
2023-04-07T01:02:10.818Z,7.90
2023-04-07T01:05:02.285Z,7.90
2023-04-07T01:07:32.650Z,7.90
2023-04-07T01:10:06.457Z,7.90
2023-04-07T01:12:57.830Z,7.90
2023-04-07T01:15:28.154Z,7.90
2023-04-07T01:18:02.265Z,7.90
2023-04-07T01:20:31.554Z,7.90
2023-04-07T01:23:04.017Z,7.90
2023-04-07T01:25:39.940Z,7.90
2023-04-07T01:28:09.484Z,7.90
2023-04-07T01:30:39.372Z,7.90
2023-04-07T01:33:06.938Z,7.90
2023-04-07T01:35:35.847Z,7.90
2023-04-07T01:38:03.516Z,7.80
2023-04-07T01:40:30.406Z,7.80
2023-04-07T01:42:57.772Z,7.80
2023-04-07T01:45:26.089Z,7.80
2023-04-07T01:47:53.806Z,7.80
2023-04-07T01:50:21.663Z,7.80
2023-04-07T01:52:48.608Z,7.80
2023-04-07T01:55:15.639Z,7.70
2023-04-07T01:57:53.267Z,7.70
2023-04-07T02:00:19.949Z,7.60
2023-04-07T02:02:54.312Z,7.60
2023-04-07T02:05:21.762Z,7.50
2023-04-07T02:08:14.921Z,7.50
2023-04-07T02:10:41.689Z,7.60
2023-04-07T02:13:10.274Z,7.60
2023-04-07T02:15:37.417Z,7.60
2023-04-07T02:18:04.619Z,7.80
2023-04-07T02:20:31.752Z,7.80
2023-04-07T02:22:58.413Z,7.80
2023-04-07T02:25:32.268Z,7.80
2023-04-07T02:27:59.570Z,7.70
2023-04-07T02:30:26.529Z,7.70
2023-04-07T02:32:53.832Z,7.70
2023-04-07T02:35:21.013Z,7.70
2023-04-07T02:37:47.712Z,7.70
2023-04-07T02:40:14.368Z,7.60
2023-04-07T02:42:41.337Z,7.70
2023-04-07T02:45:09.300Z,7.60
2023-04-07T02:47:37.530Z,7.60
2023-04-07T02:50:04.793Z,7.60
2023-04-07T02:52:34.645Z,7.60
2023-04-07T02:55:04.068Z,7.70
2023-04-07T02:57:31.057Z,7.60
2023-04-07T03:00:02.251Z,7.70
2023-04-07T03:02:44.094Z,7.60
2023-04-07T03:05:11.332Z,7.60
2023-04-07T03:07:37.977Z,7.60
2023-04-07T03:10:05.716Z,7.60
2023-04-07T03:12:33.153Z,7.50
2023-04-07T03:14:59.819Z,7.50
2023-04-07T03:17:26.786Z,7.40
2023-04-07T03:19:53.817Z,7.20
2023-04-07T03:22:20.494Z,7.20
2023-04-07T03:24:50.739Z,7.10
2023-04-07T03:27:18.433Z,7.10
2023-04-07T03:29:47.029Z,7.00
2023-04-07T03:32:15.629Z,7.00
2023-04-07T03:34:42.388Z,7.00
2023-04-07T03:37:09.003Z,6.90
2023-04-07T03:39:37.470Z,6.90
2023-04-07T03:42:11.302Z,6.80
2023-04-07T03:44:38.050Z,6.80
2023-04-07T03:47:04.660Z,6.90
2023-04-07T03:49:33.318Z,6.90
2023-04-07T03:52:02.774Z,7.00
2023-04-07T03:54:29.904Z,6.90
2023-04-07T03:56:57.313Z,6.80
2023-04-07T03:59:24.136Z,6.80
2023-04-07T04:02:02.335Z,6.70
2023-04-07T04:04:29.329Z,6.70
2023-04-07T04:06:56.167Z,6.60
2023-04-07T04:09:48.701Z,6.50
2023-04-07T04:12:17.447Z,6.50
2023-04-07T04:14:53.931Z,6.50
2023-04-07T04:17:20.845Z,6.50
2023-04-07T04:19:47.537Z,6.50
2023-04-07T04:22:22.212Z,6.40
2023-04-07T04:24:52.832Z,6.40
2023-04-07T04:27:21.379Z,6.40
2023-04-07T04:29:53.830Z,6.40
2023-04-07T04:32:29.659Z,6.40
2023-04-07T04:34:56.709Z,6.40
2023-04-07T04:37:25.678Z,6.40
2023-04-07T04:39:52.697Z,6.40
2023-04-07T04:42:21.961Z,6.40
2023-04-07T04:44:48.901Z,6.40
2023-04-07T04:47:17.197Z,6.40
2023-04-07T04:49:44.912Z,6.40
2023-04-07T04:52:11.770Z,6.40
2023-04-07T04:54:41.668Z,6.40
2023-04-07T04:57:09.999Z,6.40
2023-04-07T04:59:38.230Z,6.40
2023-04-07T05:02:05.963Z,6.40
2023-04-07T05:04:33.083Z,6.40
2023-04-07T05:07:19.323Z,6.30
2023-04-07T05:09:45.954Z,6.50
2023-04-07T05:12:16.060Z,6.40
2023-04-07T05:14:47.683Z,6.30
2023-04-07T05:17:14.352Z,6.30
2023-04-07T05:19:41.281Z,6.40
2023-04-07T05:22:15.109Z,6.40
2023-04-07T05:24:46.066Z,6.40
2023-04-07T05:27:12.717Z,6.40
2023-04-07T05:29:40.604Z,6.40
2023-04-07T05:32:12.064Z,6.50
2023-04-07T05:34:38.680Z,6.60
2023-04-07T05:37:05.460Z,6.80
2023-04-07T05:39:32.067Z,7.10
2023-04-07T05:41:58.809Z,7.20
2023-04-07T05:44:27.044Z,7.40
2023-04-07T05:46:54.490Z,7.60
2023-04-07T05:49:22.524Z,7.80
2023-04-07T05:51:57.318Z,8.00
2023-04-07T05:54:24.555Z,8.00
2023-04-07T05:56:52.789Z,8.00
2023-04-07T05:59:20.500Z,8.10
2023-04-07T06:01:47.167Z,8.00
2023-04-07T06:04:13.914Z,7.80
2023-04-07T06:06:40.874Z,7.90
2023-04-07T06:09:08.324Z,8.10
2023-04-07T06:11:35.305Z,8.50
2023-04-07T06:14:02.208Z,8.80
2023-04-07T06:16:28.871Z,9.10
2023-04-07T06:18:55.519Z,8.80
2023-04-07T06:21:22.153Z,9.10
2023-04-07T06:23:49.062Z,9.90
2023-04-07T06:26:16.282Z,9.60
2023-04-07T06:28:42.888Z,9.10
2023-04-07T06:31:09.727Z,9.00
2023-04-07T06:33:37.501Z,9.10
2023-04-07T06:36:04.302Z,9.10
2023-04-07T06:38:31.675Z,8.90
2023-04-07T06:40:58.449Z,8.50
2023-04-07T06:43:25.145Z,8.30
2023-04-07T06:45:57.711Z,8.20
2023-04-07T06:48:24.347Z,8.20
2023-04-07T06:50:51.814Z,8.30
2023-04-07T06:53:18.481Z,8.30
2023-04-07T06:55:45.472Z,8.60
2023-04-07T06:58:12.199Z,9.50
2023-04-07T07:00:38.777Z,10.00
2023-04-07T07:03:05.515Z,10.00
2023-04-07T07:05:33.264Z,10.40
2023-04-07T07:07:59.847Z,10.30
2023-04-07T07:10:26.438Z,10.40
2023-04-07T07:12:53.043Z,11.30
2023-04-07T07:15:19.625Z,11.30
2023-04-07T07:17:46.337Z,11.10
2023-04-07T07:20:12.961Z,10.90
2023-04-07T07:22:39.536Z,10.40
2023-04-07T07:25:06.267Z,10.40
2023-04-07T07:27:32.900Z,10.10
2023-04-07T07:29:59.738Z,10.00
2023-04-07T07:32:26.467Z,9.90
2023-04-07T07:34:53.077Z,10.00
2023-04-07T07:37:19.732Z,10.00
2023-04-07T07:39:46.310Z,11.10
2023-04-07T07:42:12.899Z,11.90
2023-04-07T07:44:39.570Z,11.40
2023-04-07T07:47:06.216Z,11.00
2023-04-07T07:49:32.842Z,11.00
2023-04-07T07:51:59.762Z,11.70
2023-04-07T07:54:26.391Z,11.70
2023-04-07T07:56:52.990Z,12.10
2023-04-07T07:59:19.559Z,12.00
2023-04-07T08:01:46.272Z,11.70
2023-04-07T08:04:12.914Z,11.00
2023-04-07T08:06:39.658Z,10.50
2023-04-07T08:09:06.364Z,10.60
2023-04-07T08:11:32.970Z,10.70
2023-04-07T08:13:59.585Z,11.30
2023-04-07T08:16:27.210Z,11.30
2023-04-07T08:18:53.904Z,11.40
2023-04-07T08:21:21.009Z,11.20
2023-04-07T08:23:48.084Z,12.00
2023-04-07T08:26:14.921Z,12.40
2023-04-07T08:28:41.561Z,12.10
2023-04-07T08:31:08.241Z,12.00
2023-04-07T08:33:34.869Z,11.90
2023-04-07T08:36:02.302Z,12.30
2023-04-07T08:38:28.962Z,12.40
2023-04-07T08:40:59.804Z,12.00
2023-04-07T08:43:26.681Z,12.30
2023-04-07T08:45:55.237Z,12.80
2023-04-07T08:48:23.134Z,12.50
2023-04-07T08:50:52.618Z,12.40
2023-04-07T08:53:23.721Z,12.60
2023-04-07T08:55:50.458Z,12.70
2023-04-07T08:58:17.353Z,12.70
2023-04-07T09:00:45.854Z,12.60
2023-04-07T09:03:12.878Z,12.30
2023-04-07T09:05:39.819Z,12.60
2023-04-07T09:08:06.719Z,12.90
2023-04-07T09:10:33.353Z,12.90
2023-04-07T09:13:00.004Z,13.20
2023-04-07T09:15:31.786Z,13.60
2023-04-07T09:17:59.316Z,13.40
2023-04-07T09:20:25.973Z,14.10
2023-04-07T09:22:52.673Z,13.70
2023-04-07T09:25:22.730Z,13.60
2023-04-07T09:27:59.194Z,14.60
2023-04-07T09:30:26.216Z,14.30
2023-04-07T09:32:52.924Z,14.10
2023-04-07T09:35:19.649Z,13.10
2023-04-07T09:38:00.731Z,13.30
2023-04-07T09:40:27.752Z,13.60
2023-04-07T09:42:54.581Z,13.00
2023-04-07T09:45:34.018Z,13.00
2023-04-07T09:48:06.051Z,13.00
2023-04-07T09:50:36.857Z,12.90
2023-04-07T09:53:04.564Z,13.20
2023-04-07T09:55:31.372Z,14.60
2023-04-07T09:57:58.334Z,14.50
2023-04-07T10:00:25.485Z,13.90
2023-04-07T10:02:53.233Z,15.00
2023-04-07T10:05:22.857Z,15.20
2023-04-07T10:07:49.481Z,14.80
2023-04-07T10:10:16.595Z,15.10
2023-04-07T10:12:44.710Z,14.20
2023-04-07T10:15:15.850Z,13.80
2023-04-07T10:17:47.853Z,14.20
2023-04-07T10:20:15.975Z,13.80
2023-04-07T10:22:43.117Z,15.00
2023-04-07T10:25:11.491Z,15.70
2023-04-07T10:27:59.026Z,14.80
2023-04-07T10:30:27.665Z,14.60
2023-04-07T10:32:54.704Z,15.10
2023-04-07T10:35:22.062Z,15.20
2023-04-07T10:38:07.005Z,14.70
2023-04-07T10:40:34.097Z,14.40
2023-04-07T10:43:02.241Z,15.10
2023-04-07T10:45:48.336Z,14.80
2023-04-07T10:48:15.784Z,15.00
2023-04-07T10:50:42.609Z,15.20
2023-04-07T10:53:10.582Z,16.50
2023-04-07T10:55:37.623Z,15.40
2023-04-07T10:58:17.389Z,14.90
2023-04-07T11:01:06.609Z,16.00
2023-04-07T11:03:37.932Z,15.50
2023-04-07T11:06:12.290Z,15.10
2023-04-07T11:08:48.774Z,15.40
2023-04-07T11:11:16.790Z,15.20
2023-04-07T11:13:44.805Z,14.90
2023-04-07T11:16:11.515Z,14.40
2023-04-07T11:18:38.581Z,15.00
2023-04-07T11:21:08.118Z,15.00
2023-04-07T11:23:41.545Z,15.70
2023-04-07T11:26:09.338Z,16.70
2023-04-07T11:28:37.838Z,16.80
2023-04-07T11:31:04.801Z,16.90
2023-04-07T11:33:32.149Z,16.10
2023-04-07T11:36:00.020Z,15.70
2023-04-07T11:38:28.819Z,14.90
2023-04-07T11:40:56.295Z,14.70
2023-04-07T11:43:24.036Z,14.20
2023-04-07T11:46:04.152Z,14.50
2023-04-07T11:48:31.516Z,15.00
2023-04-07T11:50:58.574Z,14.30
2023-04-07T11:53:28.997Z,14.30
2023-04-07T11:56:02.646Z,14.90
2023-04-07T11:58:29.538Z,15.00
2023-04-07T12:00:57.096Z,14.80
2023-04-07T12:03:24.139Z,14.50
2023-04-07T12:05:51.120Z,15.10
2023-04-07T12:08:18.716Z,14.50
2023-04-07T12:10:45.768Z,14.70
2023-04-07T12:13:13.108Z,15.40
2023-04-07T12:15:39.733Z,15.00
2023-04-07T12:18:06.834Z,15.00
2023-04-07T12:20:34.238Z,15.80
2023-04-07T12:23:02.225Z,16.30
2023-04-07T12:25:28.837Z,16.00
2023-04-07T12:27:55.784Z,15.70
2023-04-07T12:30:22.508Z,15.20
2023-04-07T12:32:49.152Z,15.60
2023-04-07T12:35:15.809Z,15.70
2023-04-07T12:37:42.456Z,16.10
2023-04-07T12:40:09.595Z,15.80
2023-04-07T12:42:36.249Z,16.20
2023-04-07T12:45:03.226Z,16.30
2023-04-07T12:47:29.946Z,17.00
2023-04-07T12:49:56.589Z,17.60
2023-04-07T12:52:23.219Z,17.10
2023-04-07T12:54:49.813Z,16.50
2023-04-07T12:57:16.701Z,16.80
2023-04-07T12:59:43.311Z,16.10
2023-04-07T13:02:10.196Z,16.40
2023-04-07T13:04:40.534Z,16.60
2023-04-07T13:07:08.304Z,17.90
2023-04-07T13:09:34.899Z,17.00
2023-04-07T13:12:02.880Z,17.60
2023-04-07T13:14:29.496Z,18.60
2023-04-07T13:16:56.227Z,17.70
2023-04-07T13:19:22.787Z,16.50
2023-04-07T13:21:49.407Z,15.90
2023-04-07T13:24:16.271Z,16.70
2023-04-07T13:26:43.074Z,16.60
2023-04-07T13:29:09.712Z,16.70
2023-04-07T13:31:36.349Z,16.20
2023-04-07T13:34:02.962Z,16.20
2023-04-07T13:36:29.926Z,17.40
2023-04-07T13:38:56.945Z,17.10
2023-04-07T13:41:23.647Z,17.30
2023-04-07T13:43:50.535Z,16.30
2023-04-07T13:46:27.884Z,16.20
2023-04-07T13:48:56.138Z,15.90
2023-04-07T13:51:22.913Z,16.10
2023-04-07T13:53:49.998Z,17.80
2023-04-07T13:56:16.878Z,17.30
2023-04-07T13:58:43.690Z,17.40
2023-04-07T14:01:11.248Z,16.70
2023-04-07T14:03:38.670Z,16.80
2023-04-07T14:06:05.497Z,16.80
2023-04-07T14:08:32.118Z,16.50
2023-04-07T14:10:58.702Z,16.00
2023-04-07T14:13:25.364Z,16.80
2023-04-07T14:15:53.789Z,16.50
2023-04-07T14:18:20.607Z,17.30
2023-04-07T14:20:47.180Z,16.80
2023-04-07T14:23:16.625Z,17.00
2023-04-07T14:25:47.605Z,16.10
2023-04-07T14:28:14.237Z,16.40
2023-04-07T14:30:40.858Z,17.00
2023-04-07T14:33:07.565Z,16.90
2023-04-07T14:35:36.901Z,16.10
2023-04-07T14:38:03.486Z,16.00
2023-04-07T14:40:30.077Z,16.00
2023-04-07T14:45:28.822Z,15.90
2023-04-07T14:47:55.660Z,16.50
2023-04-07T14:50:23.740Z,17.30
2023-04-07T14:52:50.502Z,17.50
2023-04-07T14:55:18.234Z,18.30
2023-04-07T14:57:44.876Z,16.90
2023-04-07T15:00:11.866Z,16.10
2023-04-07T15:02:38.904Z,17.50
2023-04-07T15:05:06.450Z,18.00
2023-04-07T15:07:33.108Z,17.50
2023-04-07T15:09:59.882Z,17.70
2023-04-07T15:12:28.755Z,18.10
2023-04-07T15:14:55.485Z,18.40
2023-04-07T15:17:33.070Z,18.40
2023-04-07T15:20:07.735Z,17.70
2023-04-07T15:22:34.544Z,17.40
2023-04-07T15:25:03.449Z,17.00
2023-04-07T15:27:30.192Z,17.70
2023-04-07T15:29:56.900Z,17.30
2023-04-07T15:32:23.488Z,17.70
2023-04-07T15:34:50.215Z,17.80
2023-04-07T15:37:18.872Z,18.00
2023-04-07T15:39:45.457Z,18.10
2023-04-07T15:42:12.639Z,18.00
2023-04-07T15:44:39.791Z,17.40
2023-04-07T15:47:06.817Z,17.70
2023-04-07T15:49:33.707Z,17.30
2023-04-07T15:52:01.254Z,17.20
2023-04-07T15:54:27.889Z,16.80
2023-04-07T15:56:54.494Z,15.80
2023-04-07T15:59:21.174Z,15.40
2023-04-07T16:01:48.085Z,16.00
2023-04-07T16:04:15.084Z,16.90
2023-04-07T16:06:41.893Z,17.30
2023-04-07T16:09:08.451Z,16.90
2023-04-07T16:11:35.455Z,16.60
2023-04-07T16:14:02.315Z,16.60
2023-04-07T16:16:30.911Z,16.20
2023-04-07T16:18:57.546Z,16.40
2023-04-07T16:21:24.154Z,16.90
2023-04-07T16:23:50.854Z,16.40
2023-04-07T16:26:17.422Z,16.40
2023-04-07T16:28:44.229Z,16.10
2023-04-07T16:31:12.308Z,15.70
2023-04-07T16:33:39.241Z,16.00
2023-04-07T16:36:06.655Z,15.90
2023-04-07T16:38:33.229Z,15.60
2023-04-07T16:41:04.590Z,15.20
2023-04-07T16:43:31.599Z,15.10
2023-04-07T16:46:00.095Z,15.40
2023-04-07T16:48:27.675Z,15.30
2023-04-07T16:50:54.298Z,15.10
2023-04-07T16:53:21.575Z,14.80
2023-04-07T16:55:48.579Z,14.60
2023-04-07T16:58:18.937Z,14.80
2023-04-07T17:00:46.302Z,14.70
2023-04-07T17:03:14.390Z,14.40
2023-04-07T17:05:41.296Z,14.70
2023-04-07T17:08:07.926Z,14.60
2023-04-07T17:10:34.537Z,14.30
2023-04-07T17:13:01.171Z,14.10
2023-04-07T17:15:27.723Z,13.80
2023-04-07T17:17:54.718Z,13.60
2023-04-07T17:20:22.583Z,13.60
2023-04-07T17:22:49.222Z,13.50
2023-04-07T17:25:18.857Z,13.40
2023-04-07T17:27:47.772Z,13.00
2023-04-07T17:30:14.371Z,13.00
2023-04-07T17:32:41.402Z,12.90
2023-04-07T17:35:08.184Z,12.80
2023-04-07T17:37:35.450Z,12.80
2023-04-07T17:40:02.267Z,12.80
2023-04-07T17:42:28.980Z,12.70
2023-04-07T17:44:55.996Z,12.60
2023-04-07T17:47:24.247Z,12.50
2023-04-07T17:49:50.844Z,12.50
2023-04-07T17:52:17.654Z,12.40
2023-04-07T17:54:44.222Z,12.30
2023-04-07T17:57:11.512Z,12.30
2023-04-07T17:59:38.142Z,12.30
2023-04-07T18:02:09.026Z,12.20
2023-04-07T18:04:40.250Z,12.00
2023-04-07T18:07:07.190Z,11.80
2023-04-07T18:09:34.024Z,11.90
2023-04-07T18:12:02.580Z,11.80
2023-04-07T18:14:30.068Z,11.70
2023-04-07T18:16:56.660Z,11.70
2023-04-07T18:19:23.238Z,11.60
2023-04-07T18:21:52.907Z,11.60
2023-04-07T18:24:20.585Z,11.50
2023-04-07T18:26:47.762Z,11.40
2023-04-07T18:29:14.812Z,11.40
2023-04-07T18:31:44.495Z,11.30
2023-04-07T18:34:12.070Z,11.20
2023-04-07T18:36:41.022Z,11.10
2023-04-07T18:39:09.629Z,11.00
2023-04-07T18:41:36.271Z,11.10
2023-04-07T18:44:02.886Z,11.00
2023-04-07T18:46:29.531Z,10.80
2023-04-07T18:48:56.130Z,10.80
2023-04-07T18:51:22.791Z,10.80
2023-04-07T18:53:49.667Z,10.80
2023-04-07T18:56:16.736Z,10.80
2023-04-07T18:58:44.922Z,10.80
2023-04-07T19:01:13.187Z,10.70
2023-04-07T19:03:41.590Z,10.60
2023-04-07T19:06:08.597Z,10.60
2023-04-07T19:08:35.903Z,10.50
2023-04-07T19:11:02.531Z,10.50
2023-04-07T19:13:30.579Z,10.40
2023-04-07T19:15:57.340Z,10.40
2023-04-07T19:18:24.367Z,10.30
2023-04-07T19:20:51.088Z,10.20
2023-04-07T19:23:17.680Z,10.20
2023-04-07T19:25:45.775Z,10.10
2023-04-07T19:28:12.873Z,10.10
2023-04-07T19:30:39.589Z,10.10
2023-04-07T19:33:06.430Z,10.00
2023-04-07T19:35:33.259Z,10.00
2023-04-07T19:37:59.866Z,9.90
2023-04-07T19:40:26.532Z,9.80
2023-04-07T19:42:54.692Z,9.60
2023-04-07T19:45:21.481Z,9.60
2023-04-07T19:47:49.151Z,9.60
2023-04-07T19:50:15.879Z,9.50
2023-04-07T19:52:45.562Z,9.40
2023-04-07T19:55:13.065Z,9.40
2023-04-07T19:57:43.083Z,9.40
2023-04-07T20:00:10.269Z,9.30
2023-04-07T20:02:47.477Z,9.30
2023-04-07T20:05:14.213Z,9.30
2023-04-07T20:07:40.778Z,9.20
2023-04-07T20:10:07.635Z,9.10
2023-04-07T20:12:34.211Z,9.10
2023-04-07T20:15:00.984Z,9.10
2023-04-07T20:17:27.647Z,9.10
2023-04-07T20:19:55.577Z,9.10
2023-04-07T20:22:22.785Z,9.10
2023-04-07T20:24:49.623Z,9.10
2023-04-07T20:27:16.333Z,9.00
2023-04-07T20:29:42.914Z,9.00
2023-04-07T20:32:09.536Z,9.00
2023-04-07T20:34:36.361Z,8.80
2023-04-07T20:37:03.113Z,8.70
2023-04-07T20:39:30.127Z,8.60
2023-04-07T20:41:57.256Z,8.50
2023-04-07T20:44:23.979Z,8.40
2023-04-07T20:46:51.336Z,8.30
2023-04-07T20:49:18.576Z,8.20
2023-04-07T20:51:45.141Z,8.10
2023-04-07T20:54:12.124Z,8.10
2023-04-07T20:56:38.739Z,7.90
2023-04-07T20:59:05.384Z,7.90
2023-04-07T21:01:32.157Z,7.90
2023-04-07T21:04:00.842Z,7.80
2023-04-07T21:06:27.554Z,7.70
2023-04-07T21:08:54.124Z,7.70
2023-04-07T21:11:21.730Z,7.60
2023-04-07T21:13:48.313Z,7.60
2023-04-07T21:16:14.981Z,7.50
2023-04-07T21:18:41.804Z,7.50
2023-04-07T21:21:08.541Z,7.40
2023-04-07T21:23:35.289Z,7.40
2023-04-07T21:26:03.168Z,7.20
2023-04-07T21:28:29.822Z,7.20
2023-04-07T21:30:56.802Z,7.20
2023-04-07T21:33:23.877Z,7.20
2023-04-07T21:35:51.146Z,7.20
2023-04-07T21:38:17.851Z,7.10
2023-04-07T21:40:44.469Z,7.00
2023-04-07T21:43:12.163Z,7.00
2023-04-07T21:45:38.911Z,7.00
2023-04-07T21:48:05.613Z,6.90
2023-04-07T21:50:32.207Z,6.90
2023-04-07T21:52:58.777Z,6.80
2023-04-07T21:55:25.392Z,6.80
2023-04-07T21:57:52.295Z,6.80
2023-04-07T22:00:19.064Z,6.70
2023-04-07T22:02:45.891Z,6.80
2023-04-07T22:05:12.705Z,6.70
2023-04-07T22:07:39.315Z,6.60
2023-04-07T22:10:06.436Z,6.60
2023-04-07T22:12:33.031Z,6.50
2023-04-07T22:14:59.598Z,6.50
2023-04-07T22:17:27.400Z,6.50
2023-04-07T22:19:54.065Z,6.40
2023-04-07T22:22:20.679Z,6.40
2023-04-07T22:24:47.268Z,6.40
2023-04-07T22:27:13.991Z,6.30
2023-04-07T22:29:40.606Z,6.30
2023-04-07T22:32:07.222Z,6.30
2023-04-07T22:34:33.813Z,6.30
2023-04-07T22:37:00.526Z,6.30
2023-04-07T22:39:27.822Z,6.20
2023-04-07T22:41:54.397Z,6.20
2023-04-07T22:44:21.267Z,6.20
2023-04-07T22:46:47.907Z,6.20
2023-04-07T22:49:14.570Z,6.20
2023-04-07T22:51:41.172Z,6.20
2023-04-07T22:54:07.792Z,6.20
2023-04-07T22:56:34.577Z,6.20
2023-04-07T22:59:05.555Z,6.10
2023-04-07T23:01:32.789Z,6.10
2023-04-07T23:03:59.597Z,6.10
2023-04-07T23:06:28.466Z,6.10
2023-04-07T23:08:55.723Z,6.10
2023-04-07T23:11:22.671Z,6.00
2023-04-07T23:13:49.440Z,6.10
2023-04-07T23:16:16.284Z,6.10
2023-04-07T23:18:43.332Z,6.10
2023-04-07T23:21:10.973Z,6.20
2023-04-07T23:23:38.893Z,6.20
2023-04-07T23:26:06.699Z,6.20
2023-04-07T23:28:33.378Z,6.30
2023-04-07T23:31:00.061Z,6.30
2023-04-07T23:33:27.627Z,6.40
2023-04-07T23:35:54.260Z,6.30
2023-04-07T23:38:20.893Z,6.30
2023-04-07T23:40:47.504Z,6.40
2023-04-07T23:43:14.048Z,6.50
2023-04-07T23:45:40.647Z,6.50
2023-04-07T23:48:07.248Z,6.50
2023-04-07T23:50:33.900Z,6.50
2023-04-07T23:53:00.548Z,6.50
2023-04-07T23:55:27.560Z,6.50
2023-04-07T23:57:54.206Z,6.50
